sensor_id;sensor_type;location;lat;lon;timestamp;temperature;humidity
16384;DHT22;8301;51.440;6.610;2022-11-11T00:01:11;8.00;99.90
16384;DHT22;8301;51.440;6.610;2022-11-11T00:03:40;7.90;99.90
16384;DHT22;8301;51.440;6.610;2022-11-11T00:06:08;7.90;99.90
16384;DHT22;8301;51.440;6.610;2022-11-11T00:08:36;7.90;99.90
16384;DHT22;8301;51.440;6.610;2022-11-11T00:11:03;7.90;99.90
16384;DHT22;8301;51.440;6.610;2022-11-11T00:13:30;7.90;99.90
16384;DHT22;8301;51.440;6.610;2022-11-11T00:16:06;7.90;99.90
16384;DHT22;8301;51.440;6.610;2022-11-11T00:18:33;7.90;99.90
16384;DHT22;8301;51.440;6.610;2022-11-11T00:21:25;7.90;99.90
16384;DHT22;8301;51.440;6.610;2022-11-11T00:24:23;7.90;99.90
16384;DHT22;8301;51.440;6.610;2022-11-11T00:27:09;7.90;99.90
16384;DHT22;8301;51.440;6.610;2022-11-11T00:29:39;7.90;99.90
16384;DHT22;8301;51.440;6.610;2022-11-11T00:32:07;7.90;99.90
16384;DHT22;8301;51.440;6.610;2022-11-11T00:34:49;7.90;99.90
16384;DHT22;8301;51.440;6.610;2022-11-11T00:37:34;7.90;99.90
16384;DHT22;8301;51.440;6.610;2022-11-11T00:40:03;7.90;99.90
16384;DHT22;8301;51.440;6.610;2022-11-11T00:42:30;7.90;99.90
16384;DHT22;8301;51.440;6.610;2022-11-11T00:44:57;7.90;99.90
16384;DHT22;8301;51.440;6.610;2022-11-11T00:47:23;7.90;99.90
16384;DHT22;8301;51.440;6.610;2022-11-11T00:50:13;7.80;99.90
16384;DHT22;8301;51.440;6.610;2022-11-11T00:52:58;7.80;99.90
16384;DHT22;8301;51.440;6.610;2022-11-11T00:55:31;7.80;99.90
16384;DHT22;8301;51.440;6.610;2022-11-11T00:57:58;7.80;99.90
16384;DHT22;8301;51.440;6.610;2022-11-11T01:00:26;7.80;99.90
16384;DHT22;8301;51.440;6.610;2022-11-11T01:02:56;7.70;99.90
16384;DHT22;8301;51.440;6.610;2022-11-11T01:05:23;7.60;99.90
16384;DHT22;8301;51.440;6.610;2022-11-11T01:07:51;7.60;99.90
16384;DHT22;8301;51.440;6.610;2022-11-11T01:10:18;7.60;99.90
16384;DHT22;8301;51.440;6.610;2022-11-11T01:13:12;7.60;99.90
16384;DHT22;8301;51.440;6.610;2022-11-11T01:15:38;7.50;99.90
16384;DHT22;8301;51.440;6.610;2022-11-11T01:18:10;7.50;99.90
16384;DHT22;8301;51.440;6.610;2022-11-11T01:20:37;7.50;99.90
16384;DHT22;8301;51.440;6.610;2022-11-11T01:23:04;7.50;99.90
16384;DHT22;8301;51.440;6.610;2022-11-11T01:25:36;7.50;99.90
16384;DHT22;8301;51.440;6.610;2022-11-11T01:28:03;7.50;99.90
16384;DHT22;8301;51.440;6.610;2022-11-11T01:30:31;7.50;99.90
16384;DHT22;8301;51.440;6.610;2022-11-11T01:33:02;7.40;99.90
16384;DHT22;8301;51.440;6.610;2022-11-11T01:35:28;7.50;99.90
16384;DHT22;8301;51.440;6.610;2022-11-11T01:37:57;7.30;99.90
16384;DHT22;8301;51.440;6.610;2022-11-11T01:40:24;7.30;99.90
16384;DHT22;8301;51.440;6.610;2022-11-11T01:48:16;7.40;99.90
16384;DHT22;8301;51.440;6.610;2022-11-11T01:50:59;7.30;99.90
16384;DHT22;8301;51.440;6.610;2022-11-11T01:53:27;7.40;99.90
16384;DHT22;8301;51.440;6.610;2022-11-11T01:55:55;7.40;99.90
16384;DHT22;8301;51.440;6.610;2022-11-11T01:58:22;7.40;99.90
16384;DHT22;8301;51.440;6.610;2022-11-11T02:00:49;7.30;99.90
16384;DHT22;8301;51.440;6.610;2022-11-11T02:03:16;7.30;99.90
16384;DHT22;8301;51.440;6.610;2022-11-11T02:05:46;7.30;99.90
16384;DHT22;8301;51.440;6.610;2022-11-11T02:08:20;7.30;99.90
16384;DHT22;8301;51.440;6.610;2022-11-11T02:11:33;7.30;99.90
16384;DHT22;8301;51.440;6.610;2022-11-11T02:13:36;7.30;99.90
16384;DHT22;8301;51.440;6.610;2022-11-11T02:16:20;7.30;99.90
16384;DHT22;8301;51.440;6.610;2022-11-11T02:18:47;7.30;99.90
16384;DHT22;8301;51.440;6.610;2022-11-11T02:21:19;7.20;99.90
16384;DHT22;8301;51.440;6.610;2022-11-11T02:24:02;7.20;99.90
16384;DHT22;8301;51.440;6.610;2022-11-11T02:26:32;7.20;99.90
16384;DHT22;8301;51.440;6.610;2022-11-11T02:29:00;7.20;99.90
16384;DHT22;8301;51.440;6.610;2022-11-11T02:31:36;7.10;99.90
16384;DHT22;8301;51.440;6.610;2022-11-11T02:34:03;7.10;99.90
16384;DHT22;8301;51.440;6.610;2022-11-11T02:36:29;7.10;99.90
16384;DHT22;8301;51.440;6.610;2022-11-11T02:38:56;7.00;99.90
16384;DHT22;8301;51.440;6.610;2022-11-11T02:41:23;7.00;99.90
16384;DHT22;8301;51.440;6.610;2022-11-11T02:44:11;7.00;99.90
16384;DHT22;8301;51.440;6.610;2022-11-11T02:46:38;7.00;99.90
16384;DHT22;8301;51.440;6.610;2022-11-11T02:49:05;7.00;99.90
16384;DHT22;8301;51.440;6.610;2022-11-11T02:51:36;7.00;99.90
16384;DHT22;8301;51.440;6.610;2022-11-11T02:54:09;7.00;99.90
16384;DHT22;8301;51.440;6.610;2022-11-11T02:56:36;7.00;99.90
16384;DHT22;8301;51.440;6.610;2022-11-11T02:59:21;7.00;99.90
16384;DHT22;8301;51.440;6.610;2022-11-11T03:01:48;7.00;99.90
16384;DHT22;8301;51.440;6.610;2022-11-11T03:04:20;7.00;99.90
16384;DHT22;8301;51.440;6.610;2022-11-11T03:06:48;6.90;99.90
16384;DHT22;8301;51.440;6.610;2022-11-11T03:09:15;6.90;99.90
16384;DHT22;8301;51.440;6.610;2022-11-11T03:11:42;6.90;99.90
16384;DHT22;8301;51.440;6.610;2022-11-11T03:14:17;6.90;99.90
16384;DHT22;8301;51.440;6.610;2022-11-11T03:16:44;6.90;99.90
16384;DHT22;8301;51.440;6.610;2022-11-11T03:19:28;6.90;99.90
16384;DHT22;8301;51.440;6.610;2022-11-11T03:21:56;6.90;99.90
16384;DHT22;8301;51.440;6.610;2022-11-11T03:24:24;6.90;99.90
16384;DHT22;8301;51.440;6.610;2022-11-11T03:26:53;6.90;99.90
16384;DHT22;8301;51.440;6.610;2022-11-11T03:29:20;6.90;99.90
16384;DHT22;8301;51.440;6.610;2022-11-11T03:31:53;6.90;99.90
16384;DHT22;8301;51.440;6.610;2022-11-11T03:34:21;6.90;99.90
16384;DHT22;8301;51.440;6.610;2022-11-11T03:36:56;6.90;99.90
16384;DHT22;8301;51.440;6.610;2022-11-11T03:39:42;6.90;99.90
16384;DHT22;8301;51.440;6.610;2022-11-11T03:42:09;6.90;99.90
16384;DHT22;8301;51.440;6.610;2022-11-11T03:44:38;6.90;99.90
16384;DHT22;8301;51.440;6.610;2022-11-11T03:47:08;6.90;99.90
16384;DHT22;8301;51.440;6.610;2022-11-11T03:49:36;6.90;99.90
16384;DHT22;8301;51.440;6.610;2022-11-11T03:52:03;6.90;99.90
16384;DHT22;8301;51.440;6.610;2022-11-11T03:54:30;6.90;99.90
16384;DHT22;8301;51.440;6.610;2022-11-11T03:56:57;6.90;99.90
16384;DHT22;8301;51.440;6.610;2022-11-11T03:59:25;6.90;99.90
16384;DHT22;8301;51.440;6.610;2022-11-11T04:01:52;6.80;99.90
16384;DHT22;8301;51.440;6.610;2022-11-11T04:04:36;6.80;99.90
16384;DHT22;8301;51.440;6.610;2022-11-11T04:07:22;6.80;99.90
16384;DHT22;8301;51.440;6.610;2022-11-11T04:10:07;6.80;99.90
16384;DHT22;8301;51.440;6.610;2022-11-11T04:12:50;6.80;99.90
16384;DHT22;8301;51.440;6.610;2022-11-11T04:15:36;6.70;99.90
16384;DHT22;8301;51.440;6.610;2022-11-11T04:18:22;6.70;99.90
16384;DHT22;8301;51.440;6.610;2022-11-11T04:21:09;6.60;99.90
16384;DHT22;8301;51.440;6.610;2022-11-11T04:23:56;6.60;99.90
16384;DHT22;8301;51.440;6.610;2022-11-11T04:26:23;6.60;99.90
16384;DHT22;8301;51.440;6.610;2022-11-11T04:28:51;6.50;99.90
16384;DHT22;8301;51.440;6.610;2022-11-11T04:31:31;6.50;99.90
16384;DHT22;8301;51.440;6.610;2022-11-11T04:33:57;6.50;99.90
16384;DHT22;8301;51.440;6.610;2022-11-11T04:36:26;6.50;99.90
16384;DHT22;8301;51.440;6.610;2022-11-11T04:38:56;6.50;99.90
16384;DHT22;8301;51.440;6.610;2022-11-11T04:41:41;6.50;99.90
16384;DHT22;8301;51.440;6.610;2022-11-11T04:44:12;6.50;99.90
16384;DHT22;8301;51.440;6.610;2022-11-11T04:47:03;6.50;99.90
16384;DHT22;8301;51.440;6.610;2022-11-11T04:49:29;6.50;99.90
16384;DHT22;8301;51.440;6.610;2022-11-11T04:51:59;6.50;99.90
16384;DHT22;8301;51.440;6.610;2022-11-11T04:54:44;6.50;99.90
16384;DHT22;8301;51.440;6.610;2022-11-11T04:57:30;6.50;99.90
16384;DHT22;8301;51.440;6.610;2022-11-11T04:59:58;6.60;99.90
16384;DHT22;8301;51.440;6.610;2022-11-11T05:02:29;6.60;99.90
16384;DHT22;8301;51.440;6.610;2022-11-11T05:05:15;6.60;99.90
16384;DHT22;8301;51.440;6.610;2022-11-11T05:07:42;6.60;99.90
16384;DHT22;8301;51.440;6.610;2022-11-11T05:10:27;6.70;99.90
16384;DHT22;8301;51.440;6.610;2022-11-11T05:12:57;6.70;99.90
16384;DHT22;8301;51.440;6.610;2022-11-11T05:15:25;6.70;99.90
16384;DHT22;8301;51.440;6.610;2022-11-11T05:18:13;6.70;99.90
16384;DHT22;8301;51.440;6.610;2022-11-11T05:20:58;6.70;99.90
16384;DHT22;8301;51.440;6.610;2022-11-11T05:23:44;6.70;99.90
16384;DHT22;8301;51.440;6.610;2022-11-11T05:26:29;6.70;99.90
16384;DHT22;8301;51.440;6.610;2022-11-11T05:28:55;6.70;99.90
16384;DHT22;8301;51.440;6.610;2022-11-11T05:31:22;6.70;99.90
16384;DHT22;8301;51.440;6.610;2022-11-11T05:33:51;6.70;99.90
16384;DHT22;8301;51.440;6.610;2022-11-11T05:36:25;6.70;99.90
16384;DHT22;8301;51.440;6.610;2022-11-11T05:38:54;6.70;99.90
16384;DHT22;8301;51.440;6.610;2022-11-11T05:41:22;6.70;99.90
16384;DHT22;8301;51.440;6.610;2022-11-11T05:43:52;6.70;99.90
16384;DHT22;8301;51.440;6.610;2022-11-11T05:46:19;6.70;99.90
16384;DHT22;8301;51.440;6.610;2022-11-11T05:48:46;6.70;99.90
16384;DHT22;8301;51.440;6.610;2022-11-11T05:51:31;6.60;99.90
16384;DHT22;8301;51.440;6.610;2022-11-11T05:53:57;6.60;99.90
16384;DHT22;8301;51.440;6.610;2022-11-11T05:56:25;6.60;99.90
16384;DHT22;8301;51.440;6.610;2022-11-11T05:58:53;6.70;99.90
16384;DHT22;8301;51.440;6.610;2022-11-11T06:01:21;6.70;99.90
16384;DHT22;8301;51.440;6.610;2022-11-11T06:03:51;6.70;99.90
16384;DHT22;8301;51.440;6.610;2022-11-11T06:06:20;6.70;99.90
16384;DHT22;8301;51.440;6.610;2022-11-11T06:08:48;6.70;99.90
16384;DHT22;8301;51.440;6.610;2022-11-11T06:11:17;6.80;99.90
16384;DHT22;8301;51.440;6.610;2022-11-11T06:13:48;6.80;99.90
16384;DHT22;8301;51.440;6.610;2022-11-11T06:16:15;6.80;99.90
16384;DHT22;8301;51.440;6.610;2022-11-11T06:18:44;6.80;99.90
16384;DHT22;8301;51.440;6.610;2022-11-11T06:21:11;6.80;99.90
16384;DHT22;8301;51.440;6.610;2022-11-11T06:23:38;6.80;99.90
16384;DHT22;8301;51.440;6.610;2022-11-11T06:26:07;6.80;99.90
16384;DHT22;8301;51.440;6.610;2022-11-11T06:28:39;6.80;99.90
16384;DHT22;8301;51.440;6.610;2022-11-11T06:31:07;6.90;99.90
16384;DHT22;8301;51.440;6.610;2022-11-11T06:33:35;6.90;99.90
16384;DHT22;8301;51.440;6.610;2022-11-11T06:36:06;6.90;99.90
16384;DHT22;8301;51.440;6.610;2022-11-11T06:38:37;6.90;99.90
16384;DHT22;8301;51.440;6.610;2022-11-11T06:41:05;6.90;99.90
16384;DHT22;8301;51.440;6.610;2022-11-11T06:43:33;6.90;99.90
16384;DHT22;8301;51.440;6.610;2022-11-11T06:46:00;6.90;99.90
16384;DHT22;8301;51.440;6.610;2022-11-11T06:48:29;6.90;99.90
16384;DHT22;8301;51.440;6.610;2022-11-11T06:51:05;7.00;99.90
16384;DHT22;8301;51.440;6.610;2022-11-11T06:53:25;7.00;99.90
16384;DHT22;8301;51.440;6.610;2022-11-11T06:55:54;7.00;99.90
16384;DHT22;8301;51.440;6.610;2022-11-11T06:58:24;7.00;99.90
16384;DHT22;8301;51.440;6.610;2022-11-11T07:00:50;7.00;99.90
16384;DHT22;8301;51.440;6.610;2022-11-11T07:03:18;7.00;99.90
16384;DHT22;8301;51.440;6.610;2022-11-11T07:05:45;7.00;99.90
16384;DHT22;8301;51.440;6.610;2022-11-11T07:08:14;7.10;99.90
16384;DHT22;8301;51.440;6.610;2022-11-11T07:10:46;7.10;99.90
16384;DHT22;8301;51.440;6.610;2022-11-11T07:13:16;7.10;99.90
16384;DHT22;8301;51.440;6.610;2022-11-11T07:15:48;7.20;99.90
16384;DHT22;8301;51.440;6.610;2022-11-11T07:18:15;7.20;99.90
16384;DHT22;8301;51.440;6.610;2022-11-11T07:20:42;7.20;99.90
16384;DHT22;8301;51.440;6.610;2022-11-11T07:23:11;7.20;99.90
16384;DHT22;8301;51.440;6.610;2022-11-11T07:25:38;7.30;99.90
16384;DHT22;8301;51.440;6.610;2022-11-11T07:28:04;7.30;99.90
16384;DHT22;8301;51.440;6.610;2022-11-11T07:30:33;7.40;99.90
16384;DHT22;8301;51.440;6.610;2022-11-11T07:33:03;7.40;99.90
16384;DHT22;8301;51.440;6.610;2022-11-11T07:35:32;7.50;99.90
16384;DHT22;8301;51.440;6.610;2022-11-11T07:38:00;7.60;99.90
16384;DHT22;8301;51.440;6.610;2022-11-11T07:40:28;7.60;99.90
16384;DHT22;8301;51.440;6.610;2022-11-11T07:42:56;7.70;99.90
16384;DHT22;8301;51.440;6.610;2022-11-11T07:45:23;7.80;99.90
16384;DHT22;8301;51.440;6.610;2022-11-11T07:47:53;7.90;99.90
16384;DHT22;8301;51.440;6.610;2022-11-11T07:50:24;8.00;99.90
16384;DHT22;8301;51.440;6.610;2022-11-11T07:52:51;8.00;99.90
16384;DHT22;8301;51.440;6.610;2022-11-11T07:55:18;8.10;99.90
16384;DHT22;8301;51.440;6.610;2022-11-11T07:57:53;8.20;99.90
16384;DHT22;8301;51.440;6.610;2022-11-11T08:00:22;8.30;99.90
16384;DHT22;8301;51.440;6.610;2022-11-11T08:02:52;8.30;99.90
16384;DHT22;8301;51.440;6.610;2022-11-11T08:05:21;8.30;99.90
16384;DHT22;8301;51.440;6.610;2022-11-11T08:07:51;8.40;99.90
16384;DHT22;8301;51.440;6.610;2022-11-11T08:10:19;8.40;99.90
16384;DHT22;8301;51.440;6.610;2022-11-11T08:12:52;8.40;99.90
16384;DHT22;8301;51.440;6.610;2022-11-11T08:15:33;8.50;99.90
16384;DHT22;8301;51.440;6.610;2022-11-11T08:18:01;8.50;99.90
16384;DHT22;8301;51.440;6.610;2022-11-11T08:20:29;8.60;99.90
16384;DHT22;8301;51.440;6.610;2022-11-11T08:22:56;8.60;99.90
16384;DHT22;8301;51.440;6.610;2022-11-11T08:25:24;8.70;99.90
16384;DHT22;8301;51.440;6.610;2022-11-11T08:28:01;8.70;99.90
16384;DHT22;8301;51.440;6.610;2022-11-11T08:30:28;8.80;99.90
16384;DHT22;8301;51.440;6.610;2022-11-11T08:33:00;8.90;99.90
16384;DHT22;8301;51.440;6.610;2022-11-11T08:35:27;9.00;99.90
16384;DHT22;8301;51.440;6.610;2022-11-11T08:38:00;9.10;99.90
16384;DHT22;8301;51.440;6.610;2022-11-11T08:40:50;9.20;99.90
16384;DHT22;8301;51.440;6.610;2022-11-11T08:43:24;9.40;99.90
16384;DHT22;8301;51.440;6.610;2022-11-11T08:45:57;9.60;99.90
16384;DHT22;8301;51.440;6.610;2022-11-11T08:48:25;9.70;99.90
16384;DHT22;8301;51.440;6.610;2022-11-11T08:50:53;9.80;99.90
16384;DHT22;8301;51.440;6.610;2022-11-11T08:53:20;9.90;99.90
16384;DHT22;8301;51.440;6.610;2022-11-11T08:55:50;10.00;99.90
16384;DHT22;8301;51.440;6.610;2022-11-11T08:58:16;10.20;99.90
16384;DHT22;8301;51.440;6.610;2022-11-11T09:00:44;10.30;99.90
16384;DHT22;8301;51.440;6.610;2022-11-11T09:03:11;10.50;99.90
16384;DHT22;8301;51.440;6.610;2022-11-11T09:05:39;10.50;99.90
16384;DHT22;8301;51.440;6.610;2022-11-11T09:08:11;10.50;99.90
16384;DHT22;8301;51.440;6.610;2022-11-11T09:10:38;10.40;99.90
16384;DHT22;8301;51.440;6.610;2022-11-11T09:13:05;10.40;99.90
16384;DHT22;8301;51.440;6.610;2022-11-11T09:15:33;10.40;99.90
16384;DHT22;8301;51.440;6.610;2022-11-11T09:18:02;10.40;99.90
16384;DHT22;8301;51.440;6.610;2022-11-11T09:20:30;10.50;99.90
16384;DHT22;8301;51.440;6.610;2022-11-11T09:22:58;10.50;99.90
16384;DHT22;8301;51.440;6.610;2022-11-11T09:25:27;10.50;99.90
16384;DHT22;8301;51.440;6.610;2022-11-11T09:27:54;10.50;99.90
16384;DHT22;8301;51.440;6.610;2022-11-11T09:30:24;10.60;99.90
16384;DHT22;8301;51.440;6.610;2022-11-11T09:32:59;10.60;99.90
16384;DHT22;8301;51.440;6.610;2022-11-11T09:35:24;10.60;99.90
16384;DHT22;8301;51.440;6.610;2022-11-11T09:37:54;10.70;99.90
16384;DHT22;8301;51.440;6.610;2022-11-11T09:40:22;10.80;99.90
16384;DHT22;8301;51.440;6.610;2022-11-11T09:43:04;10.80;99.90
16384;DHT22;8301;51.440;6.610;2022-11-11T09:45:38;10.90;99.90
16384;DHT22;8301;51.440;6.610;2022-11-11T09:48:12;10.90;99.90
16384;DHT22;8301;51.440;6.610;2022-11-11T09:50:36;11.00;99.90
16384;DHT22;8301;51.440;6.610;2022-11-11T09:58:31;11.20;99.90
16384;DHT22;8301;51.440;6.610;2022-11-11T10:01:06;11.20;99.90
16384;DHT22;8301;51.440;6.610;2022-11-11T10:03:30;11.20;99.90
16384;DHT22;8301;51.440;6.610;2022-11-11T10:06:00;11.30;99.90
16384;DHT22;8301;51.440;6.610;2022-11-11T10:08:41;11.30;99.90
16384;DHT22;8301;51.440;6.610;2022-11-11T10:11:04;11.40;99.90
16384;DHT22;8301;51.440;6.610;2022-11-11T10:13:35;11.50;99.90
16384;DHT22;8301;51.440;6.610;2022-11-11T10:18:56;11.70;99.90
16384;DHT22;8301;51.440;6.610;2022-11-11T10:24:15;11.80;99.90
16384;DHT22;8301;51.440;6.610;2022-11-11T10:26:41;11.90;99.90
16384;DHT22;8301;51.440;6.610;2022-11-11T10:29:25;12.00;99.90
16384;DHT22;8301;51.440;6.610;2022-11-11T10:32:07;12.10;99.90
16384;DHT22;8301;51.440;6.610;2022-11-11T10:34:32;12.20;99.90
16384;DHT22;8301;51.440;6.610;2022-11-11T10:37:01;12.30;99.90
16384;DHT22;8301;51.440;6.610;2022-11-11T10:39:42;12.30;99.90
16384;DHT22;8301;51.440;6.610;2022-11-11T10:41:56;12.40;99.90
16384;DHT22;8301;51.440;6.610;2022-11-11T10:44:35;12.50;99.90
16384;DHT22;8301;51.440;6.610;2022-11-11T10:49:55;12.60;99.90
16384;DHT22;8301;51.440;6.610;2022-11-11T10:52:21;12.70;99.90
16384;DHT22;8301;51.440;6.610;2022-11-11T10:58:01;12.50;99.90
16384;DHT22;8301;51.440;6.610;2022-11-11T11:02:41;12.80;99.90
16384;DHT22;8301;51.440;6.610;2022-11-11T11:05:31;12.90;99.90
16384;DHT22;8301;51.440;6.610;2022-11-11T11:07:54;12.90;99.90
16384;DHT22;8301;51.440;6.610;2022-11-11T11:10:18;12.90;99.90
16384;DHT22;8301;51.440;6.610;2022-11-11T11:12:48;13.00;99.90
16384;DHT22;8301;51.440;6.610;2022-11-11T11:15:16;13.00;99.90
16384;DHT22;8301;51.440;6.610;2022-11-11T11:20:26;13.30;99.90
16384;DHT22;8301;51.440;6.610;2022-11-11T11:22:53;13.20;99.90
16384;DHT22;8301;51.440;6.610;2022-11-11T11:25:30;13.20;99.90
16384;DHT22;8301;51.440;6.610;2022-11-11T11:28:12;13.40;99.90
16384;DHT22;8301;51.440;6.610;2022-11-11T11:30:39;13.30;99.90
16384;DHT22;8301;51.440;6.610;2022-11-11T11:33:07;13.50;99.90
16384;DHT22;8301;51.440;6.610;2022-11-11T11:35:41;13.50;99.90
16384;DHT22;8301;51.440;6.610;2022-11-11T11:38:11;13.60;99.90
16384;DHT22;8301;51.440;6.610;2022-11-11T11:40:46;13.70;99.90
16384;DHT22;8301;51.440;6.610;2022-11-11T11:45:54;13.80;99.90
16384;DHT22;8301;51.440;6.610;2022-11-11T11:48:29;13.90;99.90
16384;DHT22;8301;51.440;6.610;2022-11-11T11:56:28;13.90;99.90
16384;DHT22;8301;51.440;6.610;2022-11-11T11:59:13;13.80;99.90
16384;DHT22;8301;51.440;6.610;2022-11-11T12:06:52;13.90;99.90
16384;DHT22;8301;51.440;6.610;2022-11-11T12:09:20;13.80;99.90
16384;DHT22;8301;51.440;6.610;2022-11-11T12:11:59;13.80;99.90
16384;DHT22;8301;51.440;6.610;2022-11-11T12:24:54;13.90;99.90
16384;DHT22;8301;51.440;6.610;2022-11-11T12:27:24;13.80;99.90
16384;DHT22;8301;51.440;6.610;2022-11-11T12:30:04;13.90;99.90
16384;DHT22;8301;51.440;6.610;2022-11-11T12:32:41;14.10;99.90
16384;DHT22;8301;51.440;6.610;2022-11-11T12:48:56;13.90;99.90
16384;DHT22;8301;51.440;6.610;2022-11-11T12:51:32;13.80;99.90
16384;DHT22;8301;51.440;6.610;2022-11-11T12:56:49;13.80;99.90
16384;DHT22;8301;51.440;6.610;2022-11-11T12:59:23;13.70;99.90
16384;DHT22;8301;51.440;6.610;2022-11-11T13:04:34;13.70;99.90
16384;DHT22;8301;51.440;6.610;2022-11-11T13:12:14;13.70;99.90
16384;DHT22;8301;51.440;6.610;2022-11-11T13:17:25;13.60;99.90
16384;DHT22;8301;51.440;6.610;2022-11-11T13:19:53;13.60;99.90
16384;DHT22;8301;51.440;6.610;2022-11-11T13:22:28;13.60;99.90
16384;DHT22;8301;51.440;6.610;2022-11-11T13:24:55;13.70;99.90
16384;DHT22;8301;51.440;6.610;2022-11-11T13:35:28;13.70;99.90
16384;DHT22;8301;51.440;6.610;2022-11-11T13:37:43;13.80;99.90
16384;DHT22;8301;51.440;6.610;2022-11-11T13:40:21;13.80;99.90
16384;DHT22;8301;51.440;6.610;2022-11-11T13:42:40;13.80;99.90
16384;DHT22;8301;51.440;6.610;2022-11-11T13:45:12;13.70;99.90
16384;DHT22;8301;51.440;6.610;2022-11-11T13:47:37;13.70;99.90
16384;DHT22;8301;51.440;6.610;2022-11-11T13:52:58;13.70;99.90
16384;DHT22;8301;51.440;6.610;2022-11-11T13:55:43;13.70;99.90
16384;DHT22;8301;51.440;6.610;2022-11-11T13:57:57;13.70;99.90
16384;DHT22;8301;51.440;6.610;2022-11-11T14:00:32;13.70;99.90
16384;DHT22;8301;51.440;6.610;2022-11-11T14:05:43;13.70;99.90
16384;DHT22;8301;51.440;6.610;2022-11-11T14:08:57;13.60;99.90
16384;DHT22;8301;51.440;6.610;2022-11-11T14:15:51;13.50;99.90
16384;DHT22;8301;51.440;6.610;2022-11-11T14:20:57;13.50;99.90
16384;DHT22;8301;51.440;6.610;2022-11-11T14:23:35;13.50;99.90
16384;DHT22;8301;51.440;6.610;2022-11-11T14:28:54;13.40;99.90
16384;DHT22;8301;51.440;6.610;2022-11-11T14:31:28;13.40;99.90
16384;DHT22;8301;51.440;6.610;2022-11-11T14:34:14;13.40;99.90
16384;DHT22;8301;51.440;6.610;2022-11-11T14:37:47;13.30;99.90
16384;DHT22;8301;51.440;6.610;2022-11-11T14:44:52;13.20;99.90
16384;DHT22;8301;51.440;6.610;2022-11-11T14:47:22;13.20;99.90
16384;DHT22;8301;51.440;6.610;2022-11-11T14:49:51;13.10;99.90
16384;DHT22;8301;51.440;6.610;2022-11-11T14:52:40;13.00;99.90
16384;DHT22;8301;51.440;6.610;2022-11-11T14:58:07;12.90;99.90
16384;DHT22;8301;51.440;6.610;2022-11-11T15:01:18;12.90;99.90
16384;DHT22;8301;51.440;6.610;2022-11-11T15:03:09;12.80;99.90
16384;DHT22;8301;51.440;6.610;2022-11-11T15:08:21;12.70;99.90
16384;DHT22;8301;51.440;6.610;2022-11-11T15:10:56;12.60;99.90
16384;DHT22;8301;51.440;6.610;2022-11-11T15:13:33;12.60;99.90
16384;DHT22;8301;51.440;6.610;2022-11-11T15:21:27;12.40;99.90
16384;DHT22;8301;51.440;6.610;2022-11-11T15:26:35;12.20;99.90
16384;DHT22;8301;51.440;6.610;2022-11-11T15:31:30;12.10;99.90
16384;DHT22;8301;51.440;6.610;2022-11-11T15:36:55;11.90;99.90
16384;DHT22;8301;51.440;6.610;2022-11-11T15:39:23;11.70;99.90
16384;DHT22;8301;51.440;6.610;2022-11-11T15:41:52;11.60;99.90
16384;DHT22;8301;51.440;6.610;2022-11-11T15:44:28;11.50;99.90
16384;DHT22;8301;51.440;6.610;2022-11-11T15:46:58;11.30;99.90
16384;DHT22;8301;51.440;6.610;2022-11-11T15:49:42;11.20;99.90
16384;DHT22;8301;51.440;6.610;2022-11-11T15:54:58;11.10;99.90
16384;DHT22;8301;51.440;6.610;2022-11-11T15:57:30;11.00;99.90
16384;DHT22;8301;51.440;6.610;2022-11-11T16:00:03;10.90;99.90
16384;DHT22;8301;51.440;6.610;2022-11-11T16:02:26;10.90;99.90
16384;DHT22;8301;51.440;6.610;2022-11-11T16:04:56;10.80;99.90
16384;DHT22;8301;51.440;6.610;2022-11-11T16:07:30;10.80;99.90
16384;DHT22;8301;51.440;6.610;2022-11-11T16:10:04;10.70;99.90
16384;DHT22;8301;51.440;6.610;2022-11-11T16:12:31;10.60;99.90
16384;DHT22;8301;51.440;6.610;2022-11-11T16:15:02;10.60;99.90
16384;DHT22;8301;51.440;6.610;2022-11-11T16:17:37;10.50;99.90
16384;DHT22;8301;51.440;6.610;2022-11-11T16:19:59;10.40;99.90
16384;DHT22;8301;51.440;6.610;2022-11-11T16:22:30;10.40;99.90
16384;DHT22;8301;51.440;6.610;2022-11-11T16:24:57;10.30;99.90
16384;DHT22;8301;51.440;6.610;2022-11-11T16:27:29;10.20;99.90
16384;DHT22;8301;51.440;6.610;2022-11-11T16:30:33;10.20;99.90
16384;DHT22;8301;51.440;6.610;2022-11-11T16:32:40;10.10;99.90
16384;DHT22;8301;51.440;6.610;2022-11-11T16:35:21;10.00;99.90
16384;DHT22;8301;51.440;6.610;2022-11-11T16:37:49;10.00;99.90
16384;DHT22;8301;51.440;6.610;2022-11-11T16:45:54;9.70;99.90
16384;DHT22;8301;51.440;6.610;2022-11-11T16:51:09;9.60;99.90
16384;DHT22;8301;51.440;6.610;2022-11-11T16:53:47;9.60;99.90
16384;DHT22;8301;51.440;6.610;2022-11-11T16:56:27;9.50;99.90
16384;DHT22;8301;51.440;6.610;2022-11-11T16:58:56;9.40;99.90
16384;DHT22;8301;51.440;6.610;2022-11-11T17:01:36;9.40;99.90
16384;DHT22;8301;51.440;6.610;2022-11-11T17:04:04;9.40;99.90
16384;DHT22;8301;51.440;6.610;2022-11-11T17:12:04;9.20;99.90
16384;DHT22;8301;51.440;6.610;2022-11-11T17:14:34;9.20;99.90
16384;DHT22;8301;51.440;6.610;2022-11-11T17:17:01;9.20;99.90
16384;DHT22;8301;51.440;6.610;2022-11-11T17:19:29;9.10;99.90
16384;DHT22;8301;51.440;6.610;2022-11-11T17:22:04;9.10;99.90
16384;DHT22;8301;51.440;6.610;2022-11-11T17:24:31;9.10;99.90
16384;DHT22;8301;51.440;6.610;2022-11-11T17:26:59;9.00;99.90
16384;DHT22;8301;51.440;6.610;2022-11-11T17:29:26;9.00;99.90
16384;DHT22;8301;51.440;6.610;2022-11-11T17:31:56;9.00;99.90
16384;DHT22;8301;51.440;6.610;2022-11-11T17:34:22;8.90;99.90
16384;DHT22;8301;51.440;6.610;2022-11-11T17:36:49;8.90;99.90
16384;DHT22;8301;51.440;6.610;2022-11-11T17:39:24;8.90;99.90
16384;DHT22;8301;51.440;6.610;2022-11-11T17:41:51;8.80;99.90
16384;DHT22;8301;51.440;6.610;2022-11-11T17:44:24;8.80;99.90
16384;DHT22;8301;51.440;6.610;2022-11-11T17:46:56;8.70;99.90
16384;DHT22;8301;51.440;6.610;2022-11-11T17:49:25;8.70;99.90
16384;DHT22;8301;51.440;6.610;2022-11-11T17:51:54;8.60;99.90
16384;DHT22;8301;51.440;6.610;2022-11-11T17:54:21;8.60;99.90
16384;DHT22;8301;51.440;6.610;2022-11-11T17:56:52;8.50;99.90
16384;DHT22;8301;51.440;6.610;2022-11-11T17:59:19;8.50;99.90
16384;DHT22;8301;51.440;6.610;2022-11-11T18:01:48;8.50;99.90
16384;DHT22;8301;51.440;6.610;2022-11-11T18:04:18;8.40;99.90
16384;DHT22;8301;51.440;6.610;2022-11-11T18:06:45;8.30;99.90
16384;DHT22;8301;51.440;6.610;2022-11-11T18:09:13;8.30;99.90
16384;DHT22;8301;51.440;6.610;2022-11-11T18:11:40;8.20;99.90
16384;DHT22;8301;51.440;6.610;2022-11-11T18:14:08;8.20;99.90
16384;DHT22;8301;51.440;6.610;2022-11-11T18:16:36;8.20;99.90
16384;DHT22;8301;51.440;6.610;2022-11-11T18:19:03;8.10;99.90
16384;DHT22;8301;51.440;6.610;2022-11-11T18:21:30;8.10;99.90
16384;DHT22;8301;51.440;6.610;2022-11-11T18:24:02;8.00;99.90
16384;DHT22;8301;51.440;6.610;2022-11-11T18:26:28;8.00;99.90
16384;DHT22;8301;51.440;6.610;2022-11-11T18:28:56;7.90;99.90
16384;DHT22;8301;51.440;6.610;2022-11-11T18:31:24;7.90;99.90
16384;DHT22;8301;51.440;6.610;2022-11-11T18:33:53;7.90;99.90
16384;DHT22;8301;51.440;6.610;2022-11-11T18:36:23;7.80;99.90
16384;DHT22;8301;51.440;6.610;2022-11-11T18:38:53;7.80;99.90
16384;DHT22;8301;51.440;6.610;2022-11-11T18:41:20;7.70;99.90
16384;DHT22;8301;51.440;6.610;2022-11-11T18:43:48;7.60;99.90
16384;DHT22;8301;51.440;6.610;2022-11-11T18:46:19;7.60;99.90